Time;durP1;ratioP1;P1;durP2;ratioP2;P2;SDS_P1;SDS_P2;PMS_P1;PMS_P2;Temp;Humidity;BMP_temperature;BMP_pressure;BME280_temperature;BME280_humidity;BME280_pressure;Samples;Min_cycle;Max_cycle;Signal;HPM_P1;HPM_P2
2021/01/09 00:00:46;;;;;;;1.13;0.87;;;;;;;-0.45;100.00;94399.16;10529825;28;20114;-78
2021/01/09 00:05:49;;;;;;;0.63;0.63;;;;;;;-0.48;100.00;94402.25;10530577;28;20020;-78
2021/01/09 00:10:50;;;;;;;0.57;0.57;;;;;;;-0.48;100.00;94399.59;10546517;28;20126;-78
2021/01/09 00:15:50;;;;;;;2.15;1.23;;;;;;;-0.58;100.00;94408.00;10513168;28;20016;-79
2021/01/09 00:20:50;;;;;;;1.90;1.80;;;;;;;-0.41;100.00;94436.53;10532619;28;20047;-80
2021/01/09 00:25:51;;;;;;;1.30;1.20;;;;;;;-0.48;100.00;94419.94;10532988;28;20039;-80
2021/01/09 00:30:52;;;;;;;1.23;1.13;;;;;;;-0.48;100.00;94426.00;10532357;28;20031;-79
2021/01/09 00:35:56;;;;;;;0.75;0.70;;;;;;;-0.47;100.00;94414.44;10532734;28;20082;-80
2021/01/09 00:40:57;;;;;;;1.55;0.70;;;;;;;-0.47;100.00;94424.19;10532257;28;20553;-80
2021/01/09 00:45:57;;;;;;;1.23;0.80;;;;;;;-0.33;100.00;94438.91;10514248;28;20067;-80
2021/01/09 00:50:57;;;;;;;0.93;0.93;;;;;;;-0.15;100.00;94419.72;10513175;28;20258;-79
2021/01/09 00:55:58;;;;;;;2.90;1.33;;;;;;;-0.40;100.00;94427.59;10531429;28;20058;-79
2021/01/09 01:00:59;;;;;;;1.23;1.13;;;;;;;-0.65;100.00;94430.97;10528843;28;20056;-79
2021/01/09 01:05:59;;;;;;;2.00;1.80;;;;;;;-0.72;100.00;94444.19;10530479;28;20172;-79
2021/01/09 01:11:00;;;;;;;1.75;1.65;;;;;;;-0.67;100.00;94448.84;10530253;28;20031;-79
2021/01/09 01:16:00;;;;;;;2.85;2.22;;;;;;;-0.54;100.00;94454.06;10511721;28;20046;-79
2021/01/09 01:21:01;;;;;;;1.07;0.80;;;;;;;-0.48;100.00;94443.69;10511907;28;20083;-79
2021/01/09 01:26:01;;;;;;;1.85;1.75;;;;;;;-0.37;100.00;94432.44;10529861;28;20723;-80
2021/01/09 01:31:02;;;;;;;1.63;1.52;;;;;;;-0.54;100.00;94443.50;10529498;28;20028;-79
2021/01/09 01:36:03;;;;;;;1.60;1.20;;;;;;;-0.59;100.00;94440.66;10530185;28;20028;-79
2021/01/09 01:41:08;;;;;;;2.17;1.77;;;;;;;-0.66;100.00;94450.44;10545835;28;20495;-79
2021/01/09 01:46:10;;;;;;;1.35;1.25;;;;;;;-0.44;100.00;94434.31;10529329;28;20059;-79
2021/01/09 01:51:13;;;;;;;2.10;1.15;;;;;;;-0.37;100.00;94438.53;10531021;28;20024;-79
2021/01/09 01:56:13;;;;;;;1.98;1.63;;;;;;;-0.36;100.00;94449.91;10535649;28;20027;-80
2021/01/09 02:01:15;;;;;;;3.15;1.98;;;;;;;-0.24;100.00;94432.38;10536869;28;20024;-79
2021/01/09 02:06:20;;;;;;;2.58;2.33;;;;;;;-0.53;100.00;94439.84;10518878;28;20479;-79
2021/01/09 02:11:35;;;;;;;2.08;1.98;;;;;;;-0.32;100.00;94445.81;10536501;28;20020;-79
2021/01/09 02:16:36;;;;;;;2.13;1.83;;;;;;;-0.40;100.00;94452.16;10535788;28;20024;-79
2021/01/09 02:21:41;;;;;;;1.80;1.63;;;;;;;-0.50;100.00;94443.91;10535923;28;20504;-79
2021/01/09 02:26:41;;;;;;;1.92;1.70;;;;;;;-0.52;100.00;94445.91;10517029;28;20527;-79
2021/01/09 02:32:03;;;;;;;2.60;2.33;;;;;;;-0.54;100.00;94451.41;10535469;28;20028;-79
2021/01/09 02:37:04;;;;;;;2.40;2.15;;;;;;;-0.64;100.00;94443.16;10534163;28;20028;-79
2021/01/09 02:42:05;;;;;;;3.70;2.58;;;;;;;-0.73;100.00;94444.41;10516561;28;20024;-80
2021/01/09 02:47:06;;;;;;;3.05;2.80;;;;;;;-0.77;100.00;94440.56;10517813;28;20020;-79
2021/01/09 02:52:07;;;;;;;3.08;2.50;;;;;;;-0.67;100.00;94448.03;10535835;28;20448;-80
2021/01/09 02:57:08;;;;;;;2.72;2.10;;;;;;;-0.66;100.00;94455.72;10535060;28;20085;-79
2021/01/09 03:02:08;;;;;;;2.97;2.75;;;;;;;-0.60;100.00;94449.63;10534920;28;20486;-80
2021/01/09 03:07:08;;;;;;;2.88;2.58;;;;;;;-0.58;100.00;94447.56;10535661;28;20032;-80
2021/01/09 03:12:09;;;;;;;3.00;2.27;;;;;;;-0.52;100.00;94441.47;10535825;28;20119;-80
2021/01/09 03:17:09;;;;;;;4.03;2.60;;;;;;;-0.73;100.00;94447.03;10535840;28;20282;-80
2021/01/09 03:22:10;;;;;;;5.37;4.13;;;;;;;-0.78;100.00;94447.69;10535659;28;20051;-80
2021/01/09 03:27:10;;;;;;;5.23;4.40;;;;;;;-0.78;100.00;94447.69;10535585;28;20278;-80
2021/01/09 03:32:10;;;;;;;8.90;5.13;;;;;;;-0.81;100.00;94447.28;10536563;28;20269;-81
2021/01/09 03:37:11;;;;;;;4.77;2.93;;;;;;;-0.86;100.00;94450.56;10536402;28;20282;-81
2021/01/09 03:42:11;;;;;;;4.07;3.67;;;;;;;-0.76;100.00;94453.53;10536051;28;20273;-81
2021/01/09 03:47:11;;;;;;;5.10;4.63;;;;;;;-0.71;100.00;94456.38;10535863;28;20008;-81
2021/01/09 03:52:12;;;;;;;8.37;5.03;;;;;;;-0.72;100.00;94475.06;10517900;28;20069;-80
2021/01/09 03:57:12;;;;;;;6.07;3.15;;;;;;;-0.81;100.00;94479.75;10534958;28;20024;-80
2021/01/09 04:02:13;;;;;;;4.05;2.20;;;;;;;-0.79;100.00;94485.63;10532675;28;20028;-80
2021/01/09 04:07:13;;;;;;;6.00;3.17;;;;;;;-0.71;100.00;94487.25;10531295;28;20015;-80
2021/01/09 04:12:13;;;;;;;4.18;3.20;;;;;;;-0.76;100.00;94497.59;10531357;28;20024;-80
2021/01/09 04:17:14;;;;;;;5.13;3.80;;;;;;;-0.76;100.00;94503.69;10530083;28;20024;-79
2021/01/09 04:22:14;;;;;;;4.50;3.37;;;;;;;-0.80;100.00;94510.38;10530574;28;20048;-79
2021/01/09 04:27:15;;;;;;;5.10;3.33;;;;;;;-0.76;100.00;94508.16;10531190;28;20270;-79
2021/01/09 04:32:15;;;;;;;7.30;3.90;;;;;;;-0.74;100.00;94511.38;10532195;28;20024;-79
2021/01/09 04:37:16;;;;;;;4.70;3.80;;;;;;;-0.76;100.00;94506.31;10531142;28;20016;-79
2021/01/09 04:42:16;;;;;;;5.53;4.07;;;;;;;-0.79;100.00;94503.31;10531851;28;20783;-79
2021/01/09 04:47:18;;;;;;;5.90;4.35;;;;;;;-0.75;100.00;94520.34;10531624;28;20043;-79
2021/01/09 04:52:19;;;;;;;4.18;3.45;;;;;;;-0.68;100.00;94526.41;10530372;28;20027;-79
2021/01/09 04:57:19;;;;;;;4.60;3.58;;;;;;;-0.56;100.00;94524.75;10513876;28;20032;-78
2021/01/09 05:02:20;;;;;;;5.18;3.72;;;;;;;-0.60;100.00;94528.81;10550242;28;20016;-77
2021/01/09 05:07:20;;;;;;;4.03;3.00;;;;;;;-0.63;100.00;94526.56;10535480;28;20039;-78
2021/01/09 05:12:21;;;;;;;3.73;3.40;;;;;;;-0.73;100.00;94534.13;10535137;28;20016;-78
2021/01/09 05:17:24;;;;;;;3.78;3.45;;;;;;;-0.76;100.00;94542.47;10536052;28;20351;-79
2021/01/09 05:22:25;;;;;;;7.53;3.65;;;;;;;-0.65;100.00;94549.72;10493338;28;20045;-78
2021/01/09 05:27:26;;;;;;;4.85;4.38;;;;;;;-0.65;100.00;94564.75;10526154;28;20034;-79
2021/01/09 05:32:27;;;;;;;9.45;4.78;;;;;;;-0.66;100.00;94569.22;10532300;28;20103;-79
2021/01/09 05:37:27;;;;;;;6.07;4.70;;;;;;;-0.77;100.00;94570.66;10518556;28;20024;-79
2021/01/09 05:42:29;;;;;;;6.22;3.42;;;;;;;-0.75;100.00;94581.81;10513204;28;20033;-79
2021/01/09 05:47:30;;;;;;;5.00;3.58;;;;;;;-0.72;100.00;94583.25;10501341;28;20264;-79
2021/01/09 05:52:36;;;;;;;5.22;3.72;;;;;;;-0.79;100.00;94593.00;10534684;28;20023;-78
2021/01/09 05:57:37;;;;;;;5.20;4.22;;;;;;;-0.71;100.00;94598.88;10542307;28;20024;-78
2021/01/09 06:02:55;;;;;;;4.82;4.32;;;;;;;-0.61;100.00;94614.28;10541234;28;20407;-77
2021/01/09 06:08:01;;;;;;;5.38;4.18;;;;;;;-0.58;100.00;94600.66;10485546;28;20450;-78
2021/01/09 06:13:02;;;;;;;7.90;5.28;;;;;;;-0.63;100.00;94597.81;10479187;28;20025;-78
2021/01/09 06:18:02;;;;;;;12.98;4.45;;;;;;;-0.64;100.00;94604.13;10492678;28;20051;-78
2021/01/09 06:23:04;;;;;;;5.43;4.50;;;;;;;-0.71;100.00;94619.19;10497126;28;20041;-78
2021/01/09 06:28:08;;;;;;;6.95;4.57;;;;;;;-0.59;100.00;94619.34;10497858;28;20796;-77
2021/01/09 06:33:14;;;;;;;5.38;4.35;;;;;;;-0.71;100.00;94638.47;10498223;28;20111;-78
2021/01/09 06:38:15;;;;;;;5.38;4.68;;;;;;;-0.72;100.00;94649.22;10495880;28;20055;-74
2021/01/09 06:43:17;;;;;;;9.17;6.33;;;;;;;-0.63;100.00;94669.09;10528308;28;20032;-73
2021/01/09 06:48:18;;;;;;;7.20;6.20;;;;;;;-0.66;100.00;94677.41;10533524;28;20349;-74
2021/01/09 06:53:18;;;;;;;7.15;5.18;;;;;;;-0.46;100.00;94689.78;10526133;28;20024;-74
2021/01/09 06:58:24;;;;;;;9.00;6.03;;;;;;;-0.70;100.00;94707.88;10520245;28;20016;-74
2021/01/09 07:03:25;;;;;;;8.90;6.40;;;;;;;-0.75;100.00;94707.69;10529191;28;20270;-74
2021/01/09 07:08:29;;;;;;;8.85;6.55;;;;;;;-0.68;100.00;94719.06;10515576;28;20532;-75
2021/01/09 07:13:32;;;;;;;12.95;7.50;;;;;;;-0.71;100.00;94725.53;10514269;28;20116;-74
2021/01/09 07:18:36;;;;;;;8.68;6.13;;;;;;;-0.61;100.00;94738.34;10526880;28;20499;-74
2021/01/09 07:23:38;;;;;;;12.18;6.90;;;;;;;-0.59;100.00;94751.31;10496981;28;20024;-74
2021/01/09 07:28:41;;;;;;;15.32;8.90;;;;;;;-0.56;100.00;94757.03;10512071;28;20028;-74
2021/01/09 07:33:44;;;;;;;12.45;8.65;;;;;;;-0.61;100.00;94764.72;10486536;28;20024;-74
2021/01/09 07:38:46;;;;;;;12.50;8.15;;;;;;;-0.69;100.00;94780.75;10487713;28;20156;-74
2021/01/09 07:43:46;;;;;;;14.13;8.45;;;;;;;-0.60;100.00;94792.75;10501059;28;20098;-74
2021/01/09 07:48:48;;;;;;;15.57;8.88;;;;;;;-0.44;100.00;94798.66;10527225;28;20364;-74
2021/01/09 07:53:48;;;;;;;9.70;6.88;;;;;;;-0.30;100.00;94796.81;10509992;28;20575;-74
2021/01/09 07:58:49;;;;;;;16.50;8.13;;;;;;;-0.19;100.00;94790.91;10526751;28;20028;-76
2021/01/09 08:03:50;;;;;;;11.03;6.77;;;;;;;-0.06;100.00;94798.81;10525081;28;20039;-76
2021/01/09 08:08:51;;;;;;;11.88;6.95;;;;;;;0.23;100.00;94780.88;10521907;28;20359;-76
2021/01/09 08:13:51;;;;;;;12.85;8.30;;;;;;;-0.07;100.00;94788.47;10516186;28;20102;-73
2021/01/09 08:18:51;;;;;;;15.97;8.53;;;;;;;0.20;100.00;94791.06;10522771;28;20039;-74
2021/01/09 08:23:53;;;;;;;11.02;7.88;;;;;;;0.36;100.00;94793.25;10503370;28;20037;-74
2021/01/09 08:28:57;;;;;;;11.15;7.88;;;;;;;0.28;100.00;94790.81;10496009;28;20058;-74
2021/01/09 08:33:58;;;;;;;15.52;8.90;;;;;;;0.69;100.00;94792.34;10483785;28;20104;-74
2021/01/09 08:39:06;;;;;;;12.27;8.10;;;;;;;0.95;100.00;94798.50;10484727;28;20024;-74
2021/01/09 08:44:11;;;;;;;17.17;8.80;;;;;;;1.07;100.00;94802.13;10488919;28;20039;-74
2021/01/09 08:49:27;;;;;;;13.40;8.82;;;;;;;1.10;100.00;94796.38;10508041;28;20032;-74
2021/01/09 08:54:29;;;;;;;13.98;8.25;;;;;;;1.33;100.00;94792.41;10526207;28;20602;-74
2021/01/09 08:59:30;;;;;;;13.52;8.35;;;;;;;1.49;100.00;94783.94;10525949;28;20099;-73
2021/01/09 09:04:32;;;;;;;11.65;7.45;;;;;;;1.56;100.00;94783.06;10535060;28;20024;-74
2021/01/09 09:09:33;;;;;;;11.10;7.18;;;;;;;1.53;100.00;94774.56;10534199;28;20020;-74
2021/01/09 09:14:34;;;;;;;13.60;7.60;;;;;;;1.64;100.00;94785.47;10534473;28;20024;-74
2021/01/09 09:19:38;;;;;;;12.25;7.43;;;;;;;1.86;100.00;94778.75;10499620;28;20040;-74
2021/01/09 09:24:39;;;;;;;9.30;6.70;;;;;;;2.09;100.00;94764.06;10491886;28;20035;-74
2021/01/09 09:29:40;;;;;;;12.05;7.68;;;;;;;2.09;100.00;94752.66;10492573;28;20024;-74
2021/01/09 09:34:40;;;;;;;13.50;8.53;;;;;;;1.88;100.00;94776.72;10491363;28;20025;-72
2021/01/09 09:39:40;;;;;;;12.27;8.13;;;;;;;1.69;100.00;94775.03;10490820;28;20282;-73
2021/01/09 09:44:45;;;;;;;15.17;8.60;;;;;;;1.36;100.00;94757.56;10490852;28;20769;-73
2021/01/09 09:49:47;;;;;;;9.50;7.43;;;;;;;1.60;100.00;94768.38;10517642;28;20269;-73
2021/01/09 09:55:00;;;;;;;12.45;8.00;;;;;;;1.96;100.00;94761.56;10533802;28;20032;-73
2021/01/09 10:00:06;;;;;;;26.65;9.85;;;;;;;2.09;100.00;94744.69;10533595;28;20028;-73
2021/01/09 10:05:13;;;;;;;16.52;10.73;;;;;;;2.24;100.00;94742.50;10532393;28;20032;-74
2021/01/09 10:10:19;;;;;;;16.40;9.10;;;;;;;2.53;100.00;94737.50;10524595;28;20056;-73
2021/01/09 10:15:19;;;;;;;21.15;9.30;;;;;;;2.70;100.00;94737.69;10492425;28;20449;-73
2021/01/09 10:20:20;;;;;;;13.98;8.25;;;;;;;2.90;100.00;94740.91;10494067;28;20110;-72
2021/01/09 10:25:21;;;;;;;13.93;8.77;;;;;;;2.96;100.00;94744.50;10480098;28;20103;-73
2021/01/09 10:30:22;;;;;;;17.52;10.25;;;;;;;3.00;100.00;94740.34;10497918;28;20020;-73
2021/01/09 10:35:22;;;;;;;16.13;8.82;;;;;;;2.93;100.00;94742.31;10501568;28;20406;-72
2021/01/09 10:40:23;;;;;;;17.10;10.98;;;;;;;2.63;100.00;94739.63;10531582;28;20103;-73
2021/01/09 10:45:23;;;;;;;17.17;9.77;;;;;;;2.71;100.00;94731.34;10515396;28;20161;-73
2021/01/09 10:50:24;;;;;;;17.63;10.10;;;;;;;2.81;100.00;94730.81;10523132;28;20060;-73
2021/01/09 10:55:24;;;;;;;21.90;12.13;;;;;;;2.80;100.00;94737.16;10530255;28;20024;-73
2021/01/09 11:00:25;;;;;;;22.45;12.48;;;;;;;2.65;100.00;94743.66;10530315;28;20131;-73
2021/01/09 11:05:29;;;;;;;23.17;12.27;;;;;;;2.59;100.00;94746.41;10529150;28;20027;-73
2021/01/09 11:10:31;;;;;;;17.63;10.70;;;;;;;2.35;100.00;94740.97;10529825;28;20041;-73
2021/01/09 11:15:31;;;;;;;27.38;14.23;;;;;;;2.48;100.00;94756.72;10529892;28;20016;-73
2021/01/09 11:20:32;;;;;;;19.92;10.55;;;;;;;2.56;100.00;94759.06;10512024;28;20040;-72
2021/01/09 11:25:32;;;;;;;24.47;13.03;;;;;;;2.36;100.00;94750.53;10530347;28;20067;-73
2021/01/09 11:30:33;;;;;;;20.20;11.15;;;;;;;1.83;100.00;94746.59;10529333;28;20034;-73
2021/01/09 11:35:34;;;;;;;23.10;10.43;;;;;;;1.18;100.00;94748.50;10529775;28;20020;-73
2021/01/09 11:40:34;;;;;;;27.05;14.25;;;;;;;1.28;100.00;94736.63;10529279;28;20101;-73
2021/01/09 11:45:36;;;;;;;22.75;12.45;;;;;;;0.99;100.00;94736.19;10529967;28;20147;-73
2021/01/09 11:50:37;;;;;;;21.42;11.93;;;;;;;0.85;100.00;94752.19;10519216;28;20025;-73
2021/01/09 11:55:37;;;;;;;21.10;11.55;;;;;;;0.81;100.00;94748.31;10488652;28;20032;-73
2021/01/09 12:00:37;;;;;;;20.07;11.13;;;;;;;1.04;100.00;94722.34;10495561;28;20032;-73
2021/01/09 12:05:38;;;;;;;21.38;12.88;;;;;;;1.14;100.00;94704.16;10486066;28;20024;-73
2021/01/09 12:10:42;;;;;;;19.10;11.50;;;;;;;1.32;100.00;94714.00;10485171;28;20083;-73
2021/01/09 12:15:46;;;;;;;19.67;11.90;;;;;;;1.19;100.00;94699.03;10484726;28;20029;-75
2021/01/09 12:20:48;;;;;;;19.98;12.13;;;;;;;1.27;100.00;94690.00;10485402;28;20415;-73
2021/01/09 12:25:48;;;;;;;32.15;12.02;;;;;;;1.33;100.00;94695.25;10484713;28;20036;-74
2021/01/09 12:30:49;;;;;;;23.10;10.23;;;;;;;1.25;100.00;94692.06;10485924;28;20024;-73
2021/01/09 12:35:50;;;;;;;23.42;11.77;;;;;;;1.32;100.00;94719.28;10485307;28;20837;-74
2021/01/09 12:40:50;;;;;;;23.53;12.30;;;;;;;1.64;100.00;94719.25;10485611;28;20810;-73
2021/01/09 12:45:53;;;;;;;19.75;12.07;;;;;;;1.74;100.00;94724.84;10485486;28;20271;-75
2021/01/09 12:50:54;;;;;;;18.95;9.57;;;;;;;1.87;100.00;94724.72;10520750;28;20069;-72
2021/01/09 12:56:03;;;;;;;22.30;11.57;;;;;;;1.99;100.00;94727.44;10525067;28;20065;-72
2021/01/09 13:01:03;;;;;;;25.80;12.35;;;;;;;2.15;100.00;94722.59;10525233;28;20285;-72
2021/01/09 13:06:04;;;;;;;24.37;12.87;;;;;;;2.18;100.00;94725.63;10525994;28;20027;-72
2021/01/09 13:11:04;;;;;;;26.67;14.23;;;;;;;1.69;100.00;94745.91;10526910;28;20302;-72
2021/01/09 13:16:05;;;;;;;24.80;14.20;;;;;;;1.57;100.00;94750.28;10520636;28;20020;-72
2021/01/09 13:21:06;;;;;;;29.30;15.55;;;;;;;1.30;100.00;94753.94;10524948;28;20864;-73
2021/01/09 13:26:06;;;;;;;30.27;16.83;;;;;;;1.31;100.00;94760.03;10525799;28;20093;-73
2021/01/09 13:31:06;;;;;;;34.10;17.35;;;;;;;1.35;100.00;94761.22;10526703;28;20020;-73
2021/01/09 13:36:09;;;;;;;33.80;17.40;;;;;;;1.56;100.00;94764.53;10526306;28;20039;-72
2021/01/09 13:41:09;;;;;;;33.17;18.52;;;;;;;1.45;100.00;94758.09;10525548;28;20046;-73
2021/01/09 13:46:16;;;;;;;38.93;20.50;;;;;;;1.36;100.00;94753.06;10526585;28;20028;-73
2021/01/09 13:51:33;;;;;;;40.22;21.73;;;;;;;1.18;100.00;94756.44;10531221;28;20055;-72
2021/01/09 13:56:45;;;;;;;41.60;23.38;;;;;;;1.22;100.00;94756.03;10530750;28;20027;-73
2021/01/09 14:01:47;;;;;;;46.08;25.52;;;;;;;1.37;100.00;94764.47;10518880;28;20040;-73
2021/01/09 14:06:47;;;;;;;43.65;25.75;;;;;;;1.50;100.00;94768.88;10533677;28;20513;-73
2021/01/09 14:11:48;;;;;;;45.53;24.55;;;;;;;1.45;100.00;94763.38;10532885;28;20028;-73
2021/01/09 14:16:48;;;;;;;59.53;26.80;;;;;;;1.51;100.00;94755.41;10531811;28;20024;-72
2021/01/09 14:21:49;;;;;;;47.33;25.70;;;;;;;1.62;100.00;94767.13;10532596;28;20305;-73
2021/01/09 14:26:50;;;;;;;54.87;25.40;;;;;;;1.61;100.00;94775.31;10532070;28;20126;-72
2021/01/09 14:31:55;;;;;;;60.65;29.67;;;;;;;1.68;100.00;94773.41;10516199;28;20696;-75
2021/01/09 14:37:01;;;;;;;56.55;27.63;;;;;;;1.75;100.00;94774.16;10490561;28;20395;-73
2021/01/09 14:42:02;;;;;;;55.88;27.27;;;;;;;1.80;100.00;94779.63;10508572;28;20028;-73
2021/01/09 14:47:03;;;;;;;49.17;26.52;;;;;;;1.82;100.00;94769.63;10495059;28;20419;-73
2021/01/09 14:52:03;;;;;;;45.75;22.38;;;;;;;1.87;100.00;94775.06;10529223;28;20052;-74
2021/01/09 14:57:04;;;;;;;43.60;22.60;;;;;;;1.82;100.00;94772.25;10529165;28;20028;-73
2021/01/09 15:02:07;;;;;;;46.97;23.02;;;;;;;1.78;100.00;94778.22;10529320;28;20028;-73
2021/01/09 15:07:08;;;;;;;35.70;20.00;;;;;;;1.61;100.00;94767.34;10512367;28;20766;-73
2021/01/09 15:12:08;;;;;;;36.95;21.05;;;;;;;1.55;100.00;94763.75;10528680;28;20024;-73
2021/01/09 15:17:09;;;;;;;34.00;18.88;;;;;;;1.50;100.00;94756.41;10488382;28;20494;-73
2021/01/09 15:22:10;;;;;;;33.33;17.80;;;;;;;1.39;100.00;94753.66;10488121;28;20044;-73
2021/01/09 15:27:10;;;;;;;37.85;20.65;;;;;;;1.33;100.00;94755.34;10487044;28;20336;-73
2021/01/09 15:32:10;;;;;;;42.17;23.87;;;;;;;1.34;100.00;94765.72;10487412;28;20032;-73
2021/01/09 15:37:11;;;;;;;62.88;25.35;;;;;;;1.25;100.00;94766.19;10487345;28;20286;-73
2021/01/09 15:42:11;;;;;;;99.10;43.10;;;;;;;1.25;100.00;94766.19;10486598;28;20158;-73
2021/01/09 15:47:11;;;;;;;97.83;44.80;;;;;;;1.26;100.00;94770.47;10492580;28;20262;-72
2021/01/09 15:52:12;;;;;;;90.87;42.57;;;;;;;1.21;100.00;94759.69;10514107;28;20267;-72
2021/01/09 15:57:12;;;;;;;80.45;40.65;;;;;;;1.21;100.00;94754.41;10487543;28;20333;-72
2021/01/09 16:02:14;;;;;;;65.77;30.33;;;;;;;1.01;100.00;94760.63;10468195;28;20048;-72
2021/01/09 16:07:15;;;;;;;53.67;27.25;;;;;;;0.98;100.00;94759.22;10468649;28;20354;-72
2021/01/09 16:12:15;;;;;;;40.13;22.03;;;;;;;0.79;100.00;94765.44;10486311;28;20752;-73
2021/01/09 16:17:15;;;;;;;40.37;20.73;;;;;;;0.87;100.00;94775.78;10485888;28;20020;-73
2021/01/09 16:22:16;;;;;;;42.90;22.50;;;;;;;0.90;100.00;94774.53;10486123;28;20298;-73
2021/01/09 16:27:16;;;;;;;47.00;24.97;;;;;;;0.95;100.00;94777.34;10486133;28;20313;-73
2021/01/09 16:32:19;;;;;;;49.50;25.23;;;;;;;1.00;100.00;94770.38;10505933;28;20270;-72
2021/01/09 16:37:23;;;;;;;50.67;24.92;;;;;;;0.88;100.00;94776.56;10527621;28;20293;-72
2021/01/09 16:42:24;;;;;;;45.15;24.40;;;;;;;0.70;100.00;94774.63;10526150;28;20114;-72
2021/01/09 16:47:24;;;;;;;46.97;23.80;;;;;;;0.53;100.00;94776.94;10525888;28;20026;-72
2021/01/09 16:52:25;;;;;;;44.80;21.43;;;;;;;0.38;100.00;94780.66;10525881;28;20107;-72
2021/01/09 16:57:26;;;;;;;42.60;22.27;;;;;;;0.41;100.00;94776.78;10526325;28;20292;-72
2021/01/09 17:02:26;;;;;;;41.23;20.67;;;;;;;0.43;100.00;94780.84;10503010;28;20035;-73
2021/01/09 17:07:26;;;;;;;37.97;20.60;;;;;;;0.44;100.00;94794.88;10483822;28;20169;-73
2021/01/09 17:12:27;;;;;;;44.60;22.53;;;;;;;0.37;100.00;94791.44;10483359;28;20286;-72
2021/01/09 17:17:27;;;;;;;43.83;22.65;;;;;;;0.24;100.00;94793.09;10482537;28;20404;-72
2021/01/09 17:22:28;;;;;;;48.42;23.90;;;;;;;0.07;100.00;94787.44;10487278;28;20201;-72
2021/01/09 17:27:28;;;;;;;59.20;25.63;;;;;;;-0.03;100.00;94785.22;10492042;28;20017;-72
2021/01/09 17:32:29;;;;;;;47.70;24.63;;;;;;;-0.06;100.00;94782.16;10526223;28;20032;-79
2021/01/09 17:37:30;;;;;;;43.70;22.20;;;;;;;-0.07;100.00;94781.34;10514949;28;20043;-72
2021/01/09 17:42:30;;;;;;;46.05;24.17;;;;;;;-0.13;100.00;94789.28;10533902;28;20039;-71
2021/01/09 17:47:31;;;;;;;49.97;24.85;;;;;;;-0.18;100.00;94785.44;10526892;28;20020;-71
2021/01/09 17:52:31;;;;;;;62.83;29.40;;;;;;;-0.26;100.00;94785.63;10527978;28;20020;-73
2021/01/09 17:57:31;;;;;;;63.03;33.72;;;;;;;-0.22;100.00;94786.84;10530948;28;20017;-73
2021/01/09 18:02:32;;;;;;;64.97;31.80;;;;;;;-0.14;100.00;94800.88;10527132;28;20035;-72
2021/01/09 18:07:32;;;;;;;49.70;23.73;;;;;;;-0.06;100.00;94808.59;10529524;28;20016;-72
2021/01/09 18:12:33;;;;;;;45.60;21.83;;;;;;;-0.05;100.00;94811.00;10527745;28;20339;-73
2021/01/09 18:17:33;;;;;;;37.33;17.87;;;;;;;-0.08;100.00;94827.28;10525283;28;21088;-72
2021/01/09 18:22:37;;;;;;;37.05;19.48;;;;;;;-0.04;100.00;94841.72;10507630;28;20384;-72
2021/01/09 18:27:38;;;;;;;38.75;18.35;;;;;;;-0.05;100.00;94857.75;10523239;28;20032;-72
2021/01/09 18:32:43;;;;;;;33.60;16.63;;;;;;;-0.16;100.00;94853.09;10523990;28;20024;-72
2021/01/09 18:37:44;;;;;;;31.83;16.23;;;;;;;-0.18;100.00;94853.31;10541667;28;20028;-72
2021/01/09 18:42:48;;;;;;;25.47;13.13;;;;;;;-0.08;100.00;94845.78;10527888;28;20027;-74
2021/01/09 18:47:49;;;;;;;29.75;13.77;;;;;;;-0.06;100.00;94842.94;10529924;28;20266;-74
2021/01/09 18:52:49;;;;;;;24.80;13.30;;;;;;;0.00;100.00;94852.69;10497221;28;20031;-74
2021/01/09 18:57:50;;;;;;;24.70;11.20;;;;;;;-0.04;100.00;94862.84;10525195;28;20035;-74
2021/01/09 19:02:50;;;;;;;16.70;9.45;;;;;;;-0.04;100.00;94847.00;10528106;28;20063;-74
2021/01/09 19:07:50;;;;;;;14.60;8.13;;;;;;;-0.16;100.00;94851.25;10525659;28;20020;-73
2021/01/09 19:12:54;;;;;;;14.33;8.10;;;;;;;-0.14;100.00;94846.59;10528273;28;20269;-74
2021/01/09 19:17:54;;;;;;;12.43;8.65;;;;;;;-0.28;100.00;94843.16;10510839;28;20665;-74
2021/01/09 19:22:55;;;;;;;17.40;9.65;;;;;;;-0.37;100.00;94845.16;10511455;28;20044;-74
2021/01/09 19:27:55;;;;;;;16.38;8.77;;;;;;;-0.42;100.00;94844.97;10524844;28;20028;-73
2021/01/09 19:32:57;;;;;;;15.17;9.13;;;;;;;-0.35;100.00;94847.59;10522959;28;20079;-73
2021/01/09 19:37:58;;;;;;;16.80;9.07;;;;;;;-0.34;100.00;94854.50;10505707;28;20309;-73
2021/01/09 19:42:58;;;;;;;19.33;10.10;;;;;;;-0.33;100.00;94844.75;10523215;28;20016;-73
2021/01/09 19:47:59;;;;;;;18.70;10.60;;;;;;;-0.36;100.00;94859.19;10524397;28;20278;-73
2021/01/09 19:53:00;;;;;;;22.05;10.73;;;;;;;-0.38;100.00;94845.34;10500711;28;20278;-73
2021/01/09 19:58:00;;;;;;;20.90;9.57;;;;;;;-0.30;100.00;94839.88;10487441;28;20527;-73
2021/01/09 20:03:01;;;;;;;18.27;9.63;;;;;;;-0.23;100.00;94842.53;10487048;28;20016;-72
2021/01/09 20:08:01;;;;;;;13.32;7.60;;;;;;;-0.15;100.00;94838.84;10506373;28;20268;-73
2021/01/09 20:13:05;;;;;;;16.67;7.75;;;;;;;-0.13;100.00;94832.34;10511502;28;20023;-73
2021/01/09 20:18:06;;;;;;;8.52;4.85;;;;;;;-0.08;100.00;94822.00;10490955;28;20139;-73
2021/01/09 20:23:06;;;;;;;10.60;6.38;;;;;;;-0.12;100.00;94815.50;10498658;28;20040;-74
2021/01/09 20:28:07;;;;;;;8.43;5.47;;;;;;;-0.34;100.00;94820.16;10504059;28;20024;-74
2021/01/09 20:33:07;;;;;;;8.20;5.55;;;;;;;-0.41;100.00;94809.59;10493532;28;21111;-73
2021/01/09 20:38:07;;;;;;;9.48;5.38;;;;;;;-0.44;100.00;94811.84;10501168;28;20029;-73
2021/01/09 20:43:11;;;;;;;8.77;5.88;;;;;;;-0.56;100.00;94804.53;10498174;28;20037;-74
2021/01/09 20:48:11;;;;;;;8.48;5.00;;;;;;;-0.57;100.00;94796.81;10470415;28;20029;-74
2021/01/09 20:53:12;;;;;;;10.57;5.90;;;;;;;-0.62;100.00;94801.88;10499454;28;20029;-74
2021/01/09 20:58:12;;;;;;;9.38;5.47;;;;;;;-0.70;100.00;94811.63;10490567;28;20035;-73
2021/01/09 21:03:12;;;;;;;7.60;5.30;;;;;;;-0.71;100.00;94809.19;10493856;28;20123;-74
2021/01/09 21:08:13;;;;;;;6.10;4.25;;;;;;;-0.73;100.00;94819.91;10499841;28;20024;-73
2021/01/09 21:13:13;;;;;;;5.43;3.17;;;;;;;-0.71;100.00;94798.63;10520600;28;20039;-73
2021/01/09 21:18:14;;;;;;;9.23;4.60;;;;;;;-0.66;100.00;94766.34;10506506;28;20294;-74
2021/01/09 21:23:14;;;;;;;8.27;4.95;;;;;;;-0.57;100.00;94787.06;10515837;28;20266;-73
2021/01/09 21:28:15;;;;;;;8.88;5.38;;;;;;;-0.56;100.00;94788.69;10514780;28;20016;-74
2021/01/09 21:33:15;;;;;;;8.07;5.20;;;;;;;-0.62;100.00;94773.66;10508491;28;20020;-74
2021/01/09 21:38:16;;;;;;;9.20;4.50;;;;;;;-0.59;100.00;94791.72;10506536;28;20415;-73
2021/01/09 21:43:16;;;;;;;13.52;5.22;;;;;;;-0.53;100.00;94771.63;10494781;28;20103;-74
2021/01/09 21:48:17;;;;;;;12.82;6.40;;;;;;;-0.50;100.00;94751.91;10525876;28;20020;-79
2021/01/09 21:53:18;;;;;;;13.82;5.82;;;;;;;-0.40;100.00;94750.50;10510827;28;20110;-74
2021/01/09 21:58:18;;;;;;;9.77;5.65;;;;;;;-0.31;100.00;94748.47;10535344;28;20467;-74
2021/01/09 22:03:19;;;;;;;7.45;4.93;;;;;;;-0.38;100.00;94761.69;10536037;28;20024;-74
2021/01/09 22:08:19;;;;;;;6.70;4.43;;;;;;;-0.32;100.00;94767.97;10534262;28;20020;-73
2021/01/09 22:13:20;;;;;;;5.63;3.87;;;;;;;-0.26;100.00;94790.91;10535578;28;20276;-73
2021/01/09 22:18:21;;;;;;;7.60;3.60;;;;;;;-0.19;100.00;94777.72;10535310;28;21165;-74
2021/01/09 22:23:21;;;;;;;5.13;3.10;;;;;;;-0.11;100.00;94789.88;10534933;28;20039;-74
2021/01/09 22:28:22;;;;;;;5.03;3.47;;;;;;;-0.03;100.00;94773.81;10535284;28;20107;-74
2021/01/09 22:33:22;;;;;;;17.83;9.38;;;;;;;-0.02;100.00;94778.91;10534973;28;20273;-74
2021/01/09 22:38:23;;;;;;;7.40;4.63;;;;;;;-0.19;100.00;94778.50;10534318;28;20024;-74
2021/01/09 22:43:23;;;;;;;9.70;4.77;;;;;;;-0.29;100.00;94793.97;10534291;28;20789;-74
2021/01/09 22:48:24;;;;;;;8.13;4.00;;;;;;;-0.27;100.00;94785.84;10534156;28;20028;-75
2021/01/09 22:53:24;;;;;;;10.18;5.28;;;;;;;-0.27;100.00;94785.84;10533743;28;20024;-74